sensor_id;sensor_type;location;lat;lon;timestamp;P1;durP1;ratioP1;P2;durP2;ratioP2
611;SDS011;293;53.888;11.464;2023-03-20T00:01:49;92.30;;;44.37;;
611;SDS011;293;53.888;11.464;2023-03-20T00:04:17;82.87;;;42.57;;
611;SDS011;293;53.888;11.464;2023-03-20T00:06:45;73.37;;;41.73;;
611;SDS011;293;53.888;11.464;2023-03-20T00:09:12;68.50;;;39.97;;
611;SDS011;293;53.888;11.464;2023-03-20T00:11:40;93.97;;;45.17;;
611;SDS011;293;53.888;11.464;2023-03-20T00:14:12;95.57;;;44.93;;
611;SDS011;293;53.888;11.464;2023-03-20T00:16:42;84.77;;;42.47;;
611;SDS011;293;53.888;11.464;2023-03-20T00:19:12;83.47;;;43.67;;
611;SDS011;293;53.888;11.464;2023-03-20T00:21:43;86.50;;;46.07;;
611;SDS011;293;53.888;11.464;2023-03-20T00:24:11;82.37;;;43.63;;
611;SDS011;293;53.888;11.464;2023-03-20T00:26:38;81.60;;;44.10;;
611;SDS011;293;53.888;11.464;2023-03-20T00:29:07;99.43;;;47.57;;
611;SDS011;293;53.888;11.464;2023-03-20T00:31:40;97.87;;;46.13;;
611;SDS011;293;53.888;11.464;2023-03-20T00:34:09;78.83;;;43.00;;
611;SDS011;293;53.888;11.464;2023-03-20T00:36:38;86.97;;;45.60;;
611;SDS011;293;53.888;11.464;2023-03-20T00:39:06;72.20;;;38.73;;
611;SDS011;293;53.888;11.464;2023-03-20T00:41:35;93.97;;;45.40;;
611;SDS011;293;53.888;11.464;2023-03-20T00:44:12;91.40;;;43.60;;
611;SDS011;293;53.888;11.464;2023-03-20T00:46:45;93.63;;;45.90;;
611;SDS011;293;53.888;11.464;2023-03-20T00:49:15;80.57;;;39.80;;
611;SDS011;293;53.888;11.464;2023-03-20T00:51:42;74.50;;;39.70;;
611;SDS011;293;53.888;11.464;2023-03-20T00:54:12;77.53;;;38.60;;
611;SDS011;293;53.888;11.464;2023-03-20T00:56:40;65.17;;;35.43;;
611;SDS011;293;53.888;11.464;2023-03-20T00:59:12;65.70;;;35.63;;
611;SDS011;293;53.888;11.464;2023-03-20T01:01:42;61.63;;;32.97;;
611;SDS011;293;53.888;11.464;2023-03-20T01:04:10;67.10;;;32.60;;
611;SDS011;293;53.888;11.464;2023-03-20T01:06:38;53.00;;;27.80;;
611;SDS011;293;53.888;11.464;2023-03-20T01:09:05;53.77;;;28.30;;
611;SDS011;293;53.888;11.464;2023-03-20T01:11:33;44.67;;;24.00;;
611;SDS011;293;53.888;11.464;2023-03-20T01:14:01;49.00;;;25.70;;
611;SDS011;293;53.888;11.464;2023-03-20T01:16:28;52.30;;;26.40;;
611;SDS011;293;53.888;11.464;2023-03-20T01:18:55;48.63;;;25.17;;
611;SDS011;293;53.888;11.464;2023-03-20T01:21:22;43.43;;;25.70;;
611;SDS011;293;53.888;11.464;2023-03-20T01:23:49;43.80;;;23.23;;
611;SDS011;293;53.888;11.464;2023-03-20T01:26:18;48.60;;;24.70;;
611;SDS011;293;53.888;11.464;2023-03-20T01:28:53;38.93;;;21.37;;
611;SDS011;293;53.888;11.464;2023-03-20T01:31:20;40.87;;;22.60;;
611;SDS011;293;53.888;11.464;2023-03-20T01:33:47;40.83;;;21.17;;
611;SDS011;293;53.888;11.464;2023-03-20T01:36:14;48.63;;;23.67;;
611;SDS011;293;53.888;11.464;2023-03-20T01:38:53;36.70;;;18.63;;
611;SDS011;293;53.888;11.464;2023-03-20T01:41:21;38.20;;;21.53;;
611;SDS011;293;53.888;11.464;2023-03-20T01:43:49;46.50;;;21.20;;
611;SDS011;293;53.888;11.464;2023-03-20T01:46:19;39.50;;;20.17;;
611;SDS011;293;53.888;11.464;2023-03-20T01:48:56;41.13;;;20.90;;
611;SDS011;293;53.888;11.464;2023-03-20T01:51:33;35.57;;;17.60;;
611;SDS011;293;53.888;11.464;2023-03-20T01:54:03;40.83;;;17.23;;
611;SDS011;293;53.888;11.464;2023-03-20T01:56:35;28.03;;;16.33;;
611;SDS011;293;53.888;11.464;2023-03-20T01:59:07;34.67;;;15.27;;
611;SDS011;293;53.888;11.464;2023-03-20T02:01:39;32.80;;;16.63;;
611;SDS011;293;53.888;11.464;2023-03-20T02:04:07;39.13;;;18.80;;
611;SDS011;293;53.888;11.464;2023-03-20T02:06:35;33.07;;;16.43;;
611;SDS011;293;53.888;11.464;2023-03-20T02:09:04;42.80;;;18.20;;
611;SDS011;293;53.888;11.464;2023-03-20T02:11:31;42.93;;;15.87;;
611;SDS011;293;53.888;11.464;2023-03-20T02:13:58;39.10;;;18.50;;
611;SDS011;293;53.888;11.464;2023-03-20T02:16:26;44.93;;;18.97;;
611;SDS011;293;53.888;11.464;2023-03-20T02:18:55;38.40;;;17.63;;
611;SDS011;293;53.888;11.464;2023-03-20T02:27:12;33.53;;;16.80;;
611;SDS011;293;53.888;11.464;2023-03-20T02:30:01;37.33;;;18.67;;
611;SDS011;293;53.888;11.464;2023-03-20T02:41:40;40.37;;;16.97;;
611;SDS011;293;53.888;11.464;2023-03-20T02:44:12;39.90;;;17.13;;
611;SDS011;293;53.888;11.464;2023-03-20T02:46:51;35.93;;;16.27;;
611;SDS011;293;53.888;11.464;2023-03-20T02:49:25;38.23;;;17.03;;
611;SDS011;293;53.888;11.464;2023-03-20T02:52:04;40.03;;;17.67;;
611;SDS011;293;53.888;11.464;2023-03-20T02:54:42;40.20;;;19.53;;
611;SDS011;293;53.888;11.464;2023-03-20T02:57:17;36.47;;;18.97;;
611;SDS011;293;53.888;11.464;2023-03-20T02:59:50;39.83;;;17.83;;
611;SDS011;293;53.888;11.464;2023-03-20T03:02:22;35.23;;;17.27;;
611;SDS011;293;53.888;11.464;2023-03-20T03:04:56;37.53;;;17.63;;
611;SDS011;293;53.888;11.464;2023-03-20T03:07:28;38.63;;;18.37;;
611;SDS011;293;53.888;11.464;2023-03-20T03:10:00;41.70;;;20.40;;
611;SDS011;293;53.888;11.464;2023-03-20T03:12:30;41.80;;;19.43;;
611;SDS011;293;53.888;11.464;2023-03-20T03:15:01;34.80;;;17.03;;
611;SDS011;293;53.888;11.464;2023-03-20T03:17:31;28.03;;;16.80;;
611;SDS011;293;53.888;11.464;2023-03-20T03:20:02;40.73;;;17.50;;
611;SDS011;293;53.888;11.464;2023-03-20T03:22:33;36.60;;;16.90;;
611;SDS011;293;53.888;11.464;2023-03-20T03:25:03;38.40;;;18.40;;
611;SDS011;293;53.888;11.464;2023-03-20T03:27:31;35.97;;;17.43;;
611;SDS011;293;53.888;11.464;2023-03-20T03:30:02;35.57;;;18.20;;
611;SDS011;293;53.888;11.464;2023-03-20T03:32:33;39.43;;;18.30;;
611;SDS011;293;53.888;11.464;2023-03-20T03:35:05;39.67;;;17.83;;
611;SDS011;293;53.888;11.464;2023-03-20T03:37:38;36.13;;;19.10;;
611;SDS011;293;53.888;11.464;2023-03-20T03:40:15;38.67;;;17.27;;
611;SDS011;293;53.888;11.464;2023-03-20T03:42:49;40.73;;;19.40;;
611;SDS011;293;53.888;11.464;2023-03-20T03:45:22;31.00;;;16.27;;
611;SDS011;293;53.888;11.464;2023-03-20T03:47:54;38.30;;;16.67;;
611;SDS011;293;53.888;11.464;2023-03-20T03:50:27;32.13;;;14.47;;
611;SDS011;293;53.888;11.464;2023-03-20T03:52:56;36.67;;;15.80;;
611;SDS011;293;53.888;11.464;2023-03-20T03:55:28;38.70;;;17.80;;
611;SDS011;293;53.888;11.464;2023-03-20T03:57:59;31.73;;;16.83;;
611;SDS011;293;53.888;11.464;2023-03-20T04:00:29;32.70;;;18.63;;
611;SDS011;293;53.888;11.464;2023-03-20T04:02:59;33.33;;;18.23;;
611;SDS011;293;53.888;11.464;2023-03-20T04:05:27;37.63;;;18.13;;
611;SDS011;293;53.888;11.464;2023-03-20T04:07:57;31.67;;;17.07;;
611;SDS011;293;53.888;11.464;2023-03-20T04:10:27;34.20;;;17.23;;
611;SDS011;293;53.888;11.464;2023-03-20T04:12:54;36.83;;;18.37;;
611;SDS011;293;53.888;11.464;2023-03-20T04:15:22;26.77;;;16.23;;
611;SDS011;293;53.888;11.464;2023-03-20T04:17:51;28.00;;;16.90;;
611;SDS011;293;53.888;11.464;2023-03-20T04:20:19;36.40;;;17.37;;
611;SDS011;293;53.888;11.464;2023-03-20T04:22:45;34.80;;;16.67;;
611;SDS011;293;53.888;11.464;2023-03-20T04:25:14;37.23;;;17.10;;
611;SDS011;293;53.888;11.464;2023-03-20T04:27:44;28.17;;;16.43;;
611;SDS011;293;53.888;11.464;2023-03-20T04:30:11;26.83;;;15.97;;
611;SDS011;293;53.888;11.464;2023-03-20T04:32:38;28.83;;;15.87;;
611;SDS011;293;53.888;11.464;2023-03-20T04:35:05;29.73;;;14.50;;
611;SDS011;293;53.888;11.464;2023-03-20T04:37:33;22.73;;;14.33;;
611;SDS011;293;53.888;11.464;2023-03-20T04:40:00;27.67;;;15.30;;
611;SDS011;293;53.888;11.464;2023-03-20T04:42:28;27.87;;;14.20;;
611;SDS011;293;53.888;11.464;2023-03-20T04:44:56;25.70;;;13.50;;
611;SDS011;293;53.888;11.464;2023-03-20T04:47:23;22.50;;;12.33;;
611;SDS011;293;53.888;11.464;2023-03-20T04:49:50;22.13;;;12.00;;
611;SDS011;293;53.888;11.464;2023-03-20T04:52:17;16.57;;;9.67;;
611;SDS011;293;53.888;11.464;2023-03-20T04:54:44;15.63;;;9.20;;
611;SDS011;293;53.888;11.464;2023-03-20T04:57:12;14.27;;;9.43;;
611;SDS011;293;53.888;11.464;2023-03-20T04:59:39;18.60;;;10.50;;
611;SDS011;293;53.888;11.464;2023-03-20T05:02:07;16.27;;;9.40;;
611;SDS011;293;53.888;11.464;2023-03-20T05:04:38;15.07;;;9.60;;
611;SDS011;293;53.888;11.464;2023-03-20T05:07:05;13.80;;;7.93;;
611;SDS011;293;53.888;11.464;2023-03-20T05:09:34;16.60;;;8.40;;
611;SDS011;293;53.888;11.464;2023-03-20T05:12:00;13.07;;;8.07;;
611;SDS011;293;53.888;11.464;2023-03-20T05:14:27;9.40;;;7.00;;
611;SDS011;293;53.888;11.464;2023-03-20T05:16:57;9.00;;;6.30;;
611;SDS011;293;53.888;11.464;2023-03-20T05:19:25;11.00;;;7.13;;
611;SDS011;293;53.888;11.464;2023-03-20T05:21:52;11.60;;;6.33;;
611;SDS011;293;53.888;11.464;2023-03-20T05:24:18;10.50;;;6.37;;
611;SDS011;293;53.888;11.464;2023-03-20T05:26:46;10.80;;;6.20;;
611;SDS011;293;53.888;11.464;2023-03-20T05:29:13;8.13;;;5.27;;
611;SDS011;293;53.888;11.464;2023-03-20T05:31:40;6.80;;;5.60;;
611;SDS011;293;53.888;11.464;2023-03-20T05:34:07;6.70;;;5.10;;
611;SDS011;293;53.888;11.464;2023-03-20T05:36:35;9.63;;;5.30;;
611;SDS011;293;53.888;11.464;2023-03-20T05:39:02;8.50;;;5.53;;
611;SDS011;293;53.888;11.464;2023-03-20T05:41:29;14.00;;;7.40;;
611;SDS011;293;53.888;11.464;2023-03-20T05:43:56;10.40;;;6.80;;
611;SDS011;293;53.888;11.464;2023-03-20T05:46:23;10.03;;;6.43;;
611;SDS011;293;53.888;11.464;2023-03-20T05:48:50;7.03;;;5.13;;
611;SDS011;293;53.888;11.464;2023-03-20T05:51:17;10.53;;;6.50;;
611;SDS011;293;53.888;11.464;2023-03-20T05:53:45;11.57;;;7.67;;
611;SDS011;293;53.888;11.464;2023-03-20T05:56:12;11.03;;;7.90;;
611;SDS011;293;53.888;11.464;2023-03-20T05:58:39;11.27;;;6.07;;
611;SDS011;293;53.888;11.464;2023-03-20T06:01:06;15.43;;;7.87;;
611;SDS011;293;53.888;11.464;2023-03-20T06:03:33;17.13;;;8.90;;
611;SDS011;293;53.888;11.464;2023-03-20T06:06:00;12.57;;;8.43;;
611;SDS011;293;53.888;11.464;2023-03-20T06:08:27;17.50;;;10.67;;
611;SDS011;293;53.888;11.464;2023-03-20T06:10:56;19.33;;;10.97;;
611;SDS011;293;53.888;11.464;2023-03-20T06:13:23;15.03;;;8.90;;
611;SDS011;293;53.888;11.464;2023-03-20T06:15:50;15.30;;;9.93;;
611;SDS011;293;53.888;11.464;2023-03-20T06:18:17;15.30;;;8.70;;
611;SDS011;293;53.888;11.464;2023-03-20T06:20:44;13.27;;;9.60;;
611;SDS011;293;53.888;11.464;2023-03-20T06:23:11;16.93;;;9.67;;
611;SDS011;293;53.888;11.464;2023-03-20T06:25:37;19.00;;;10.33;;
611;SDS011;293;53.888;11.464;2023-03-20T06:28:06;16.10;;;9.37;;
611;SDS011;293;53.888;11.464;2023-03-20T06:30:33;12.40;;;8.93;;
611;SDS011;293;53.888;11.464;2023-03-20T06:32:59;17.47;;;9.63;;
611;SDS011;293;53.888;11.464;2023-03-20T06:35:26;12.73;;;8.43;;
611;SDS011;293;53.888;11.464;2023-03-20T06:37:55;14.63;;;9.70;;
611;SDS011;293;53.888;11.464;2023-03-20T06:40:23;16.97;;;9.30;;
611;SDS011;293;53.888;11.464;2023-03-20T06:42:51;16.23;;;10.80;;
611;SDS011;293;53.888;11.464;2023-03-20T06:45:19;13.83;;;9.07;;
611;SDS011;293;53.888;11.464;2023-03-20T06:47:47;14.47;;;10.13;;
611;SDS011;293;53.888;11.464;2023-03-20T06:50:14;19.90;;;10.70;;
611;SDS011;293;53.888;11.464;2023-03-20T06:52:41;15.43;;;11.03;;
611;SDS011;293;53.888;11.464;2023-03-20T06:55:08;12.90;;;9.67;;
611;SDS011;293;53.888;11.464;2023-03-20T06:57:35;17.30;;;9.97;;
611;SDS011;293;53.888;11.464;2023-03-20T07:00:03;19.43;;;10.00;;
611;SDS011;293;53.888;11.464;2023-03-20T07:02:33;16.10;;;10.70;;
611;SDS011;293;53.888;11.464;2023-03-20T07:05:00;11.77;;;9.30;;
611;SDS011;293;53.888;11.464;2023-03-20T07:07:27;18.83;;;10.83;;
611;SDS011;293;53.888;11.464;2023-03-20T07:09:54;17.27;;;11.13;;
611;SDS011;293;53.888;11.464;2023-03-20T07:12:21;36.10;;;24.83;;
611;SDS011;293;53.888;11.464;2023-03-20T07:14:52;13.83;;;11.50;;
611;SDS011;293;53.888;11.464;2023-03-20T07:17:20;17.23;;;10.23;;
611;SDS011;293;53.888;11.464;2023-03-20T07:19:48;13.67;;;8.93;;
611;SDS011;293;53.888;11.464;2023-03-20T07:22:17;13.70;;;9.17;;
611;SDS011;293;53.888;11.464;2023-03-20T07:24:47;12.20;;;8.43;;
611;SDS011;293;53.888;11.464;2023-03-20T07:27:14;13.80;;;9.30;;
611;SDS011;293;53.888;11.464;2023-03-20T07:29:42;13.23;;;9.10;;
611;SDS011;293;53.888;11.464;2023-03-20T07:32:08;12.57;;;8.33;;
611;SDS011;293;53.888;11.464;2023-03-20T07:34:36;11.73;;;7.10;;
611;SDS011;293;53.888;11.464;2023-03-20T07:37:04;11.80;;;7.67;;
611;SDS011;293;53.888;11.464;2023-03-20T07:39:31;16.37;;;7.33;;
611;SDS011;293;53.888;11.464;2023-03-20T07:41:58;10.20;;;6.30;;
611;SDS011;293;53.888;11.464;2023-03-20T07:44:25;8.27;;;5.73;;
611;SDS011;293;53.888;11.464;2023-03-20T07:46:52;9.73;;;6.60;;
611;SDS011;293;53.888;11.464;2023-03-20T07:49:19;7.30;;;4.90;;
611;SDS011;293;53.888;11.464;2023-03-20T07:51:46;8.53;;;5.30;;
611;SDS011;293;53.888;11.464;2023-03-20T07:54:16;9.00;;;5.43;;
611;SDS011;293;53.888;11.464;2023-03-20T07:56:43;5.47;;;4.00;;
611;SDS011;293;53.888;11.464;2023-03-20T07:59:10;10.50;;;4.97;;
611;SDS011;293;53.888;11.464;2023-03-20T08:01:37;6.30;;;5.00;;
611;SDS011;293;53.888;11.464;2023-03-20T08:04:04;19.57;;;17.53;;
611;SDS011;293;53.888;11.464;2023-03-20T08:06:31;6.60;;;5.37;;
611;SDS011;293;53.888;11.464;2023-03-20T08:08:58;6.40;;;3.93;;
611;SDS011;293;53.888;11.464;2023-03-20T08:11:27;4.30;;;3.60;;
611;SDS011;293;53.888;11.464;2023-03-20T08:13:53;5.30;;;3.90;;
611;SDS011;293;53.888;11.464;2023-03-20T08:16:20;4.73;;;3.73;;
611;SDS011;293;53.888;11.464;2023-03-20T08:18:47;5.93;;;4.27;;
611;SDS011;293;53.888;11.464;2023-03-20T08:21:17;5.57;;;3.67;;
611;SDS011;293;53.888;11.464;2023-03-20T08:23:44;7.33;;;5.60;;
611;SDS011;293;53.888;11.464;2023-03-20T08:26:11;7.73;;;4.00;;
611;SDS011;293;53.888;11.464;2023-03-20T08:28:39;4.87;;;3.53;;
611;SDS011;293;53.888;11.464;2023-03-20T08:31:06;10.67;;;5.83;;
611;SDS011;293;53.888;11.464;2023-03-20T08:33:33;5.73;;;3.90;;
611;SDS011;293;53.888;11.464;2023-03-20T08:36:00;6.57;;;4.87;;
611;SDS011;293;53.888;11.464;2023-03-20T08:38:27;6.07;;;4.70;;
611;SDS011;293;53.888;11.464;2023-03-20T08:40:54;4.43;;;4.00;;
611;SDS011;293;53.888;11.464;2023-03-20T08:43:22;6.03;;;4.07;;
611;SDS011;293;53.888;11.464;2023-03-20T08:45:50;6.00;;;3.70;;
611;SDS011;293;53.888;11.464;2023-03-20T08:48:17;5.57;;;4.37;;
611;SDS011;293;53.888;11.464;2023-03-20T08:50:44;6.40;;;4.97;;
611;SDS011;293;53.888;11.464;2023-03-20T08:53:11;4.90;;;4.40;;
611;SDS011;293;53.888;11.464;2023-03-20T08:55:38;6.40;;;4.53;;
611;SDS011;293;53.888;11.464;2023-03-20T08:58:05;9.63;;;4.43;;
611;SDS011;293;53.888;11.464;2023-03-20T09:00:32;6.73;;;4.77;;
611;SDS011;293;53.888;11.464;2023-03-20T09:03:00;5.60;;;4.97;;
611;SDS011;293;53.888;11.464;2023-03-20T09:05:27;7.90;;;4.50;;
611;SDS011;293;53.888;11.464;2023-03-20T09:07:54;5.00;;;4.40;;
611;SDS011;293;53.888;11.464;2023-03-20T09:10:21;5.00;;;4.00;;
611;SDS011;293;53.888;11.464;2023-03-20T09:12:47;4.70;;;4.20;;
611;SDS011;293;53.888;11.464;2023-03-20T09:15:14;5.37;;;4.50;;
611;SDS011;293;53.888;11.464;2023-03-20T09:17:41;6.60;;;4.97;;
611;SDS011;293;53.888;11.464;2023-03-20T09:20:10;4.73;;;4.23;;
611;SDS011;293;53.888;11.464;2023-03-20T09:22:37;5.37;;;4.87;;
611;SDS011;293;53.888;11.464;2023-03-20T09:25:05;6.10;;;5.43;;
611;SDS011;293;53.888;11.464;2023-03-20T09:27:33;5.53;;;4.37;;
611;SDS011;293;53.888;11.464;2023-03-20T09:30:00;6.00;;;4.50;;
611;SDS011;293;53.888;11.464;2023-03-20T09:32:27;7.50;;;3.80;;
611;SDS011;293;53.888;11.464;2023-03-20T09:34:54;7.40;;;4.90;;
611;SDS011;293;53.888;11.464;2023-03-20T09:37:22;4.40;;;4.00;;
611;SDS011;293;53.888;11.464;2023-03-20T09:39:49;4.93;;;3.70;;
611;SDS011;293;53.888;11.464;2023-03-20T09:42:20;7.27;;;3.77;;
611;SDS011;293;53.888;11.464;2023-03-20T09:44:56;3.80;;;3.50;;
611;SDS011;293;53.888;11.464;2023-03-20T09:47:34;5.30;;;4.40;;
611;SDS011;293;53.888;11.464;2023-03-20T09:50:12;14.47;;;9.97;;
611;SDS011;293;53.888;11.464;2023-03-20T09:52:53;50.77;;;35.60;;
611;SDS011;293;53.888;11.464;2023-03-20T09:55:28;4.77;;;3.67;;
611;SDS011;293;53.888;11.464;2023-03-20T09:58:01;5.50;;;4.63;;
611;SDS011;293;53.888;11.464;2023-03-20T10:00:33;5.27;;;4.17;;
611;SDS011;293;53.888;11.464;2023-03-20T10:03:01;5.07;;;3.77;;
611;SDS011;293;53.888;11.464;2023-03-20T10:05:30;8.57;;;4.23;;
611;SDS011;293;53.888;11.464;2023-03-20T10:08:05;7.13;;;4.40;;
611;SDS011;293;53.888;11.464;2023-03-20T10:10:38;5.83;;;3.80;;
611;SDS011;293;53.888;11.464;2023-03-20T10:13:19;7.30;;;3.60;;
611;SDS011;293;53.888;11.464;2023-03-20T10:16:02;5.17;;;3.93;;
611;SDS011;293;53.888;11.464;2023-03-20T10:18:38;9.03;;;4.47;;
611;SDS011;293;53.888;11.464;2023-03-20T10:21:09;5.50;;;4.30;;
611;SDS011;293;53.888;11.464;2023-03-20T10:23:45;6.87;;;4.37;;
611;SDS011;293;53.888;11.464;2023-03-20T10:26:20;8.43;;;4.10;;
611;SDS011;293;53.888;11.464;2023-03-20T10:28:49;7.43;;;4.87;;
611;SDS011;293;53.888;11.464;2023-03-20T10:31:25;6.90;;;5.90;;
611;SDS011;293;53.888;11.464;2023-03-20T10:34:07;6.80;;;5.47;;
611;SDS011;293;53.888;11.464;2023-03-20T10:36:49;5.93;;;5.33;;
611;SDS011;293;53.888;11.464;2023-03-20T10:39:31;8.27;;;5.03;;
611;SDS011;293;53.888;11.464;2023-03-20T10:42:08;12.13;;;9.67;;
611;SDS011;293;53.888;11.464;2023-03-20T10:44:41;64.20;;;58.00;;
611;SDS011;293;53.888;11.464;2023-03-20T10:47:13;13.60;;;10.17;;
611;SDS011;293;53.888;11.464;2023-03-20T10:49:44;7.10;;;5.13;;
611;SDS011;293;53.888;11.464;2023-03-20T10:52:15;6.83;;;6.13;;
611;SDS011;293;53.888;11.464;2023-03-20T10:54:45;7.40;;;5.63;;
611;SDS011;293;53.888;11.464;2023-03-20T10:57:18;7.60;;;4.90;;
611;SDS011;293;53.888;11.464;2023-03-20T10:59:48;5.80;;;4.70;;
611;SDS011;293;53.888;11.464;2023-03-20T11:02:18;5.07;;;4.23;;
611;SDS011;293;53.888;11.464;2023-03-20T11:04:46;5.27;;;4.77;;
611;SDS011;293;53.888;11.464;2023-03-20T11:07:15;6.67;;;4.77;;
611;SDS011;293;53.888;11.464;2023-03-20T11:09:52;6.80;;;5.30;;
611;SDS011;293;53.888;11.464;2023-03-20T11:12:35;9.27;;;6.77;;
611;SDS011;293;53.888;11.464;2023-03-20T11:15:20;5.50;;;4.27;;
611;SDS011;293;53.888;11.464;2023-03-20T11:17:55;6.70;;;4.70;;
611;SDS011;293;53.888;11.464;2023-03-20T11:20:23;5.60;;;5.10;;
611;SDS011;293;53.888;11.464;2023-03-20T11:22:56;4.53;;;4.00;;
611;SDS011;293;53.888;11.464;2023-03-20T11:25:31;5.70;;;5.07;;
611;SDS011;293;53.888;11.464;2023-03-20T11:30:56;12.03;;;5.30;;
611;SDS011;293;53.888;11.464;2023-03-20T11:33:26;9.50;;;5.83;;
611;SDS011;293;53.888;11.464;2023-03-20T11:35:55;7.80;;;5.33;;
611;SDS011;293;53.888;11.464;2023-03-20T11:38:24;9.37;;;6.00;;
611;SDS011;293;53.888;11.464;2023-03-20T11:40:52;13.53;;;6.63;;
611;SDS011;293;53.888;11.464;2023-03-20T11:43:21;7.77;;;5.97;;
611;SDS011;293;53.888;11.464;2023-03-20T11:45:53;6.43;;;5.83;;
611;SDS011;293;53.888;11.464;2023-03-20T11:48:21;6.27;;;5.67;;
611;SDS011;293;53.888;11.464;2023-03-20T11:50:51;6.50;;;5.60;;
611;SDS011;293;53.888;11.464;2023-03-20T11:53:25;5.90;;;5.30;;
611;SDS011;293;53.888;11.464;2023-03-20T11:56:07;7.63;;;5.80;;
611;SDS011;293;53.888;11.464;2023-03-20T11:58:38;8.43;;;6.40;;
611;SDS011;293;53.888;11.464;2023-03-20T12:01:16;10.33;;;5.97;;
611;SDS011;293;53.888;11.464;2023-03-20T12:03:44;6.43;;;5.13;;
611;SDS011;293;53.888;11.464;2023-03-20T12:06:20;8.77;;;6.07;;
611;SDS011;293;53.888;11.464;2023-03-20T12:08:50;14.80;;;6.40;;
611;SDS011;293;53.888;11.464;2023-03-20T12:11:27;9.17;;;5.60;;
611;SDS011;293;53.888;11.464;2023-03-20T12:14:05;10.87;;;6.50;;
611;SDS011;293;53.888;11.464;2023-03-20T12:16:38;6.10;;;5.13;;
611;SDS011;293;53.888;11.464;2023-03-20T12:19:08;9.20;;;6.50;;
611;SDS011;293;53.888;11.464;2023-03-20T12:21:43;8.30;;;5.50;;
611;SDS011;293;53.888;11.464;2023-03-20T12:24:15;6.63;;;5.33;;
611;SDS011;293;53.888;11.464;2023-03-20T12:26:53;5.43;;;4.93;;
611;SDS011;293;53.888;11.464;2023-03-20T12:29:26;9.60;;;6.07;;
611;SDS011;293;53.888;11.464;2023-03-20T12:31:57;7.77;;;4.87;;
611;SDS011;293;53.888;11.464;2023-03-20T12:34:30;6.60;;;4.60;;
611;SDS011;293;53.888;11.464;2023-03-20T12:37:01;5.20;;;4.63;;
611;SDS011;293;53.888;11.464;2023-03-20T12:39:30;6.93;;;6.13;;
611;SDS011;293;53.888;11.464;2023-03-20T12:42:05;8.03;;;5.37;;
611;SDS011;293;53.888;11.464;2023-03-20T12:44:40;6.30;;;5.30;;
611;SDS011;293;53.888;11.464;2023-03-20T12:47:15;6.70;;;5.80;;
611;SDS011;293;53.888;11.464;2023-03-20T12:50:02;5.13;;;4.60;;
611;SDS011;293;53.888;11.464;2023-03-20T12:52:37;5.20;;;4.43;;
611;SDS011;293;53.888;11.464;2023-03-20T12:55:20;12.30;;;10.90;;
611;SDS011;293;53.888;11.464;2023-03-20T12:58:00;13.87;;;9.40;;
611;SDS011;293;53.888;11.464;2023-03-20T13:00:35;28.60;;;19.30;;
611;SDS011;293;53.888;11.464;2023-03-20T13:03:15;9.60;;;5.60;;
611;SDS011;293;53.888;11.464;2023-03-20T13:05:52;6.90;;;5.73;;
611;SDS011;293;53.888;11.464;2023-03-20T13:08:41;7.53;;;5.87;;
611;SDS011;293;53.888;11.464;2023-03-20T13:11:20;9.63;;;5.60;;
611;SDS011;293;53.888;11.464;2023-03-20T13:13:57;6.07;;;5.57;;
611;SDS011;293;53.888;11.464;2023-03-20T13:16:31;6.90;;;5.50;;
611;SDS011;293;53.888;11.464;2023-03-20T13:19:10;7.43;;;6.63;;
611;SDS011;293;53.888;11.464;2023-03-20T13:21:46;11.07;;;6.57;;
611;SDS011;293;53.888;11.464;2023-03-20T13:24:35;8.20;;;5.63;;
611;SDS011;293;53.888;11.464;2023-03-20T13:27:21;7.30;;;5.93;;
611;SDS011;293;53.888;11.464;2023-03-20T13:29:59;6.90;;;6.20;;
611;SDS011;293;53.888;11.464;2023-03-20T13:32:35;7.87;;;5.87;;
611;SDS011;293;53.888;11.464;2023-03-20T13:35:15;7.80;;;6.47;;
611;SDS011;293;53.888;11.464;2023-03-20T13:37:50;8.77;;;6.57;;
611;SDS011;293;53.888;11.464;2023-03-20T13:40:20;11.10;;;9.87;;
611;SDS011;293;53.888;11.464;2023-03-20T13:42:51;6.60;;;5.73;;
611;SDS011;293;53.888;11.464;2023-03-20T13:45:26;9.87;;;6.50;;
611;SDS011;293;53.888;11.464;2023-03-20T13:47:59;8.43;;;7.67;;
611;SDS011;293;53.888;11.464;2023-03-20T13:50:33;8.60;;;7.20;;
611;SDS011;293;53.888;11.464;2023-03-20T13:53:09;9.50;;;8.10;;
611;SDS011;293;53.888;11.464;2023-03-20T13:55:47;10.93;;;7.37;;
611;SDS011;293;53.888;11.464;2023-03-20T13:58:22;9.30;;;7.53;;
611;SDS011;293;53.888;11.464;2023-03-20T14:01:07;9.60;;;8.30;;
611;SDS011;293;53.888;11.464;2023-03-20T14:03:42;9.40;;;7.73;;
611;SDS011;293;53.888;11.464;2023-03-20T14:06:18;10.40;;;8.60;;
611;SDS011;293;53.888;11.464;2023-03-20T14:09:29;14.30;;;8.00;;
611;SDS011;293;53.888;11.464;2023-03-20T14:11:59;9.37;;;8.03;;
611;SDS011;293;53.888;11.464;2023-03-20T14:14:31;11.67;;;7.13;;
611;SDS011;293;53.888;11.464;2023-03-20T14:17:11;10.43;;;6.77;;
611;SDS011;293;53.888;11.464;2023-03-20T14:19:43;13.77;;;9.57;;
611;SDS011;293;53.888;11.464;2023-03-20T14:22:15;12.13;;;7.70;;
611;SDS011;293;53.888;11.464;2023-03-20T14:24:48;9.90;;;8.57;;
611;SDS011;293;53.888;11.464;2023-03-20T14:27:20;11.00;;;8.40;;
611;SDS011;293;53.888;11.464;2023-03-20T14:29:49;11.30;;;8.90;;
611;SDS011;293;53.888;11.464;2023-03-20T14:32:30;9.63;;;8.13;;
611;SDS011;293;53.888;11.464;2023-03-20T14:35:00;16.90;;;8.90;;
611;SDS011;293;53.888;11.464;2023-03-20T14:40:37;9.60;;;8.70;;
611;SDS011;293;53.888;11.464;2023-03-20T14:43:13;13.20;;;8.83;;
611;SDS011;293;53.888;11.464;2023-03-20T14:45:46;9.73;;;7.87;;
611;SDS011;293;53.888;11.464;2023-03-20T14:48:26;10.50;;;7.73;;
611;SDS011;293;53.888;11.464;2023-03-20T14:51:06;12.40;;;8.97;;
611;SDS011;293;53.888;11.464;2023-03-20T14:53:42;11.80;;;7.77;;
611;SDS011;293;53.888;11.464;2023-03-20T14:56:09;11.77;;;8.03;;
611;SDS011;293;53.888;11.464;2023-03-20T15:04:18;9.63;;;8.53;;
611;SDS011;293;53.888;11.464;2023-03-20T15:06:58;9.77;;;7.60;;
611;SDS011;293;53.888;11.464;2023-03-20T15:09:28;19.30;;;9.20;;
611;SDS011;293;53.888;11.464;2023-03-20T15:11:58;11.80;;;7.97;;
611;SDS011;293;53.888;11.464;2023-03-20T15:14:29;17.40;;;9.73;;
611;SDS011;293;53.888;11.464;2023-03-20T15:17:00;12.77;;;8.90;;
611;SDS011;293;53.888;11.464;2023-03-20T15:19:29;14.30;;;9.83;;
611;SDS011;293;53.888;11.464;2023-03-20T15:21:59;17.70;;;11.37;;
611;SDS011;293;53.888;11.464;2023-03-20T15:24:27;23.93;;;17.77;;
611;SDS011;293;53.888;11.464;2023-03-20T15:26:56;13.47;;;8.00;;
611;SDS011;293;53.888;11.464;2023-03-20T15:29:24;8.50;;;7.50;;
611;SDS011;293;53.888;11.464;2023-03-20T15:31:53;10.63;;;8.20;;
611;SDS011;293;53.888;11.464;2023-03-20T15:34:22;9.50;;;7.40;;
611;SDS011;293;53.888;11.464;2023-03-20T15:36:53;8.63;;;6.77;;
611;SDS011;293;53.888;11.464;2023-03-20T15:39:23;11.83;;;7.10;;
611;SDS011;293;53.888;11.464;2023-03-20T15:41:52;12.80;;;7.30;;
611;SDS011;293;53.888;11.464;2023-03-20T15:44:21;9.33;;;7.63;;
611;SDS011;293;53.888;11.464;2023-03-20T15:46:53;9.60;;;6.37;;
611;SDS011;293;53.888;11.464;2023-03-20T15:49:23;12.63;;;8.37;;
611;SDS011;293;53.888;11.464;2023-03-20T15:51:50;11.00;;;7.43;;
611;SDS011;293;53.888;11.464;2023-03-20T15:54:21;7.73;;;7.03;;
611;SDS011;293;53.888;11.464;2023-03-20T15:56:49;8.70;;;7.33;;
611;SDS011;293;53.888;11.464;2023-03-20T15:59:18;8.67;;;6.60;;
611;SDS011;293;53.888;11.464;2023-03-20T16:01:49;8.60;;;7.10;;
611;SDS011;293;53.888;11.464;2023-03-20T16:04:19;12.00;;;7.47;;
611;SDS011;293;53.888;11.464;2023-03-20T16:06:47;9.13;;;7.07;;